sensor_id;sensor_type;location;lat;lon;timestamp;P1;durP1;ratioP1;P2;durP2;ratioP2
69161;SDS011;56269;51.738;21.652;2024-02-26T00:01:54;16.73;;;5.67;;
69161;SDS011;56269;51.738;21.652;2024-02-26T00:04:21;14.27;;;5.43;;
69161;SDS011;56269;51.738;21.652;2024-02-26T00:06:47;15.20;;;5.65;;
69161;SDS011;56269;51.738;21.652;2024-02-26T00:09:16;13.18;;;4.55;;
69161;SDS011;56269;51.738;21.652;2024-02-26T00:11:42;12.75;;;4.93;;
69161;SDS011;56269;51.738;21.652;2024-02-26T00:14:08;14.60;;;4.70;;
69161;SDS011;56269;51.738;21.652;2024-02-26T00:16:34;11.85;;;4.70;;
69161;SDS011;56269;51.738;21.652;2024-02-26T00:19:00;14.50;;;4.93;;
69161;SDS011;56269;51.738;21.652;2024-02-26T00:21:27;13.27;;;4.88;;
69161;SDS011;56269;51.738;21.652;2024-02-26T00:23:54;12.97;;;4.77;;
69161;SDS011;56269;51.738;21.652;2024-02-26T00:26:21;13.05;;;4.72;;
69161;SDS011;56269;51.738;21.652;2024-02-26T00:28:47;14.80;;;5.68;;
69161;SDS011;56269;51.738;21.652;2024-02-26T00:31:13;13.18;;;5.38;;
69161;SDS011;56269;51.738;21.652;2024-02-26T00:33:40;15.60;;;5.32;;
69161;SDS011;56269;51.738;21.652;2024-02-26T00:36:06;12.13;;;4.90;;
69161;SDS011;56269;51.738;21.652;2024-02-26T00:38:32;14.15;;;4.93;;
69161;SDS011;56269;51.738;21.652;2024-02-26T00:40:58;12.63;;;5.10;;
69161;SDS011;56269;51.738;21.652;2024-02-26T00:43:24;10.75;;;4.80;;
69161;SDS011;56269;51.738;21.652;2024-02-26T00:45:50;13.90;;;5.13;;
69161;SDS011;56269;51.738;21.652;2024-02-26T00:48:18;12.85;;;4.93;;
69161;SDS011;56269;51.738;21.652;2024-02-26T00:50:44;12.48;;;5.07;;
69161;SDS011;56269;51.738;21.652;2024-02-26T00:53:10;12.32;;;4.88;;
69161;SDS011;56269;51.738;21.652;2024-02-26T00:55:36;12.15;;;4.72;;
69161;SDS011;56269;51.738;21.652;2024-02-26T00:58:03;14.07;;;4.50;;
69161;SDS011;56269;51.738;21.652;2024-02-26T01:00:29;13.40;;;5.00;;
69161;SDS011;56269;51.738;21.652;2024-02-26T01:02:55;11.38;;;4.68;;
69161;SDS011;56269;51.738;21.652;2024-02-26T01:05:22;12.02;;;4.60;;
69161;SDS011;56269;51.738;21.652;2024-02-26T01:07:51;12.23;;;4.72;;
69161;SDS011;56269;51.738;21.652;2024-02-26T01:10:17;12.27;;;5.00;;
69161;SDS011;56269;51.738;21.652;2024-02-26T01:12:44;13.63;;;5.20;;
69161;SDS011;56269;51.738;21.652;2024-02-26T01:15:10;12.45;;;4.53;;
69161;SDS011;56269;51.738;21.652;2024-02-26T01:17:36;15.52;;;4.40;;
69161;SDS011;56269;51.738;21.652;2024-02-26T01:20:02;10.90;;;4.38;;
69161;SDS011;56269;51.738;21.652;2024-02-26T01:22:28;10.37;;;4.23;;
69161;SDS011;56269;51.738;21.652;2024-02-26T01:24:54;11.70;;;4.88;;
69161;SDS011;56269;51.738;21.652;2024-02-26T01:27:22;12.13;;;4.50;;
69161;SDS011;56269;51.738;21.652;2024-02-26T01:29:52;11.82;;;4.85;;
69161;SDS011;56269;51.738;21.652;2024-02-26T01:32:18;11.07;;;4.43;;
69161;SDS011;56269;51.738;21.652;2024-02-26T01:34:45;10.70;;;3.58;;
69161;SDS011;56269;51.738;21.652;2024-02-26T01:37:11;11.45;;;4.25;;
69161;SDS011;56269;51.738;21.652;2024-02-26T01:39:37;11.48;;;4.22;;
69161;SDS011;56269;51.738;21.652;2024-02-26T01:42:03;10.40;;;4.20;;
69161;SDS011;56269;51.738;21.652;2024-02-26T01:44:29;12.37;;;4.90;;
69161;SDS011;56269;51.738;21.652;2024-02-26T01:46:56;11.20;;;4.25;;
69161;SDS011;56269;51.738;21.652;2024-02-26T01:49:23;13.27;;;4.75;;
69161;SDS011;56269;51.738;21.652;2024-02-26T01:51:50;12.30;;;3.97;;
69161;SDS011;56269;51.738;21.652;2024-02-26T01:54:16;9.77;;;3.67;;
69161;SDS011;56269;51.738;21.652;2024-02-26T01:56:42;12.53;;;4.53;;
69161;SDS011;56269;51.738;21.652;2024-02-26T01:59:09;10.85;;;4.07;;
69161;SDS011;56269;51.738;21.652;2024-02-26T02:01:35;9.82;;;3.70;;
69161;SDS011;56269;51.738;21.652;2024-02-26T02:04:03;12.38;;;4.57;;
69161;SDS011;56269;51.738;21.652;2024-02-26T02:06:30;12.75;;;4.57;;
69161;SDS011;56269;51.738;21.652;2024-02-26T02:08:56;10.87;;;3.97;;
69161;SDS011;56269;51.738;21.652;2024-02-26T02:11:22;10.93;;;4.30;;
69161;SDS011;56269;51.738;21.652;2024-02-26T02:13:48;11.13;;;4.45;;
69161;SDS011;56269;51.738;21.652;2024-02-26T02:16:15;14.68;;;5.57;;
69161;SDS011;56269;51.738;21.652;2024-02-26T02:18:41;10.95;;;4.43;;
69161;SDS011;56269;51.738;21.652;2024-02-26T02:21:07;11.50;;;4.57;;
69161;SDS011;56269;51.738;21.652;2024-02-26T02:23:33;12.38;;;4.75;;
69161;SDS011;56269;51.738;21.652;2024-02-26T02:26:00;13.23;;;5.03;;
69161;SDS011;56269;51.738;21.652;2024-02-26T02:28:26;12.27;;;4.60;;
69161;SDS011;56269;51.738;21.652;2024-02-26T02:30:53;11.02;;;4.80;;
69161;SDS011;56269;51.738;21.652;2024-02-26T02:33:20;11.37;;;4.20;;
69161;SDS011;56269;51.738;21.652;2024-02-26T02:35:48;9.95;;;3.67;;
69161;SDS011;56269;51.738;21.652;2024-02-26T02:38:16;11.80;;;4.80;;
69161;SDS011;56269;51.738;21.652;2024-02-26T02:40:43;13.40;;;4.70;;
69161;SDS011;56269;51.738;21.652;2024-02-26T02:43:11;10.68;;;4.35;;
69161;SDS011;56269;51.738;21.652;2024-02-26T02:45:37;10.33;;;4.03;;
69161;SDS011;56269;51.738;21.652;2024-02-26T02:48:03;12.15;;;5.03;;
69161;SDS011;56269;51.738;21.652;2024-02-26T02:50:30;10.30;;;3.97;;
69161;SDS011;56269;51.738;21.652;2024-02-26T02:52:56;11.00;;;4.72;;
69161;SDS011;56269;51.738;21.652;2024-02-26T02:55:22;9.20;;;3.80;;
69161;SDS011;56269;51.738;21.652;2024-02-26T02:57:48;10.65;;;3.95;;
69161;SDS011;56269;51.738;21.652;2024-02-26T03:00:15;12.02;;;4.35;;
69161;SDS011;56269;51.738;21.652;2024-02-26T03:02:42;9.82;;;4.07;;
69161;SDS011;56269;51.738;21.652;2024-02-26T03:05:10;9.73;;;3.60;;
69161;SDS011;56269;51.738;21.652;2024-02-26T03:07:36;10.87;;;4.33;;
69161;SDS011;56269;51.738;21.652;2024-02-26T03:10:03;12.50;;;4.07;;
69161;SDS011;56269;51.738;21.652;2024-02-26T03:12:29;11.32;;;4.40;;
69161;SDS011;56269;51.738;21.652;2024-02-26T03:14:56;12.82;;;4.13;;
69161;SDS011;56269;51.738;21.652;2024-02-26T03:17:22;11.23;;;3.90;;
69161;SDS011;56269;51.738;21.652;2024-02-26T03:19:50;13.50;;;4.30;;
69161;SDS011;56269;51.738;21.652;2024-02-26T03:22:19;11.15;;;3.78;;
69161;SDS011;56269;51.738;21.652;2024-02-26T03:24:46;9.48;;;4.53;;
69161;SDS011;56269;51.738;21.652;2024-02-26T03:27:12;8.65;;;3.92;;
69161;SDS011;56269;51.738;21.652;2024-02-26T03:29:38;11.73;;;5.13;;
69161;SDS011;56269;51.738;21.652;2024-02-26T03:32:05;12.13;;;4.77;;
69161;SDS011;56269;51.738;21.652;2024-02-26T03:34:32;11.38;;;4.30;;
69161;SDS011;56269;51.738;21.652;2024-02-26T03:37:00;9.98;;;4.03;;
69161;SDS011;56269;51.738;21.652;2024-02-26T03:39:26;10.57;;;3.85;;
69161;SDS011;56269;51.738;21.652;2024-02-26T03:41:52;12.70;;;4.38;;
69161;SDS011;56269;51.738;21.652;2024-02-26T03:44:21;13.83;;;4.53;;
69161;SDS011;56269;51.738;21.652;2024-02-26T03:46:47;17.20;;;4.78;;
69161;SDS011;56269;51.738;21.652;2024-02-26T03:49:13;12.52;;;4.47;;
69161;SDS011;56269;51.738;21.652;2024-02-26T03:51:39;12.73;;;5.05;;
69161;SDS011;56269;51.738;21.652;2024-02-26T03:54:05;13.13;;;4.63;;
69161;SDS011;56269;51.738;21.652;2024-02-26T03:56:31;13.73;;;6.00;;
69161;SDS011;56269;51.738;21.652;2024-02-26T03:58:58;14.40;;;5.35;;
69161;SDS011;56269;51.738;21.652;2024-02-26T04:01:25;12.05;;;4.93;;
69161;SDS011;56269;51.738;21.652;2024-02-26T04:03:51;11.80;;;5.75;;
69161;SDS011;56269;51.738;21.652;2024-02-26T04:06:18;14.30;;;7.20;;
69161;SDS011;56269;51.738;21.652;2024-02-26T04:08:46;13.40;;;5.93;;
69161;SDS011;56269;51.738;21.652;2024-02-26T04:11:13;15.73;;;5.47;;
69161;SDS011;56269;51.738;21.652;2024-02-26T04:13:43;13.25;;;5.20;;
69161;SDS011;56269;51.738;21.652;2024-02-26T04:16:15;16.05;;;6.20;;
69161;SDS011;56269;51.738;21.652;2024-02-26T04:18:42;11.87;;;5.63;;
69161;SDS011;56269;51.738;21.652;2024-02-26T04:21:08;14.60;;;5.57;;
69161;SDS011;56269;51.738;21.652;2024-02-26T04:23:34;15.40;;;5.20;;
69161;SDS011;56269;51.738;21.652;2024-02-26T04:26:00;11.98;;;5.15;;
69161;SDS011;56269;51.738;21.652;2024-02-26T04:28:27;13.07;;;5.63;;
69161;SDS011;56269;51.738;21.652;2024-02-26T04:30:55;13.85;;;6.13;;
69161;SDS011;56269;51.738;21.652;2024-02-26T04:33:21;13.00;;;5.93;;
69161;SDS011;56269;51.738;21.652;2024-02-26T04:35:47;16.00;;;5.78;;
69161;SDS011;56269;51.738;21.652;2024-02-26T04:38:14;13.98;;;6.00;;
69161;SDS011;56269;51.738;21.652;2024-02-26T04:40:40;14.03;;;5.27;;
69161;SDS011;56269;51.738;21.652;2024-02-26T04:43:06;14.88;;;5.25;;
69161;SDS011;56269;51.738;21.652;2024-02-26T04:45:32;12.45;;;5.43;;
69161;SDS011;56269;51.738;21.652;2024-02-26T04:47:59;13.93;;;5.35;;
69161;SDS011;56269;51.738;21.652;2024-02-26T04:50:25;15.87;;;5.57;;
69161;SDS011;56269;51.738;21.652;2024-02-26T04:52:51;12.43;;;5.10;;
69161;SDS011;56269;51.738;21.652;2024-02-26T04:55:17;15.10;;;5.85;;
69161;SDS011;56269;51.738;21.652;2024-02-26T04:57:43;12.25;;;5.10;;
69161;SDS011;56269;51.738;21.652;2024-02-26T05:00:09;12.67;;;5.33;;
69161;SDS011;56269;51.738;21.652;2024-02-26T05:02:37;11.27;;;5.10;;
69161;SDS011;56269;51.738;21.652;2024-02-26T05:05:04;14.25;;;5.65;;
69161;SDS011;56269;51.738;21.652;2024-02-26T05:07:32;14.27;;;5.63;;
69161;SDS011;56269;51.738;21.652;2024-02-26T05:09:58;15.10;;;5.65;;
69161;SDS011;56269;51.738;21.652;2024-02-26T05:12:25;15.47;;;5.33;;
69161;SDS011;56269;51.738;21.652;2024-02-26T05:14:51;16.40;;;5.15;;
69161;SDS011;56269;51.738;21.652;2024-02-26T05:17:17;14.63;;;6.22;;
69161;SDS011;56269;51.738;21.652;2024-02-26T05:19:43;13.30;;;5.68;;
69161;SDS011;56269;51.738;21.652;2024-02-26T05:22:09;13.32;;;5.03;;
69161;SDS011;56269;51.738;21.652;2024-02-26T05:24:37;11.67;;;5.33;;
69161;SDS011;56269;51.738;21.652;2024-02-26T05:27:04;13.77;;;5.05;;
69161;SDS011;56269;51.738;21.652;2024-02-26T05:29:30;11.05;;;4.82;;
69161;SDS011;56269;51.738;21.652;2024-02-26T05:31:56;10.77;;;4.88;;
69161;SDS011;56269;51.738;21.652;2024-02-26T05:34:23;11.90;;;4.53;;
69161;SDS011;56269;51.738;21.652;2024-02-26T05:36:49;11.68;;;4.43;;
69161;SDS011;56269;51.738;21.652;2024-02-26T05:39:15;12.43;;;4.68;;
69161;SDS011;56269;51.738;21.652;2024-02-26T05:41:42;11.02;;;4.03;;
69161;SDS011;56269;51.738;21.652;2024-02-26T05:44:08;11.57;;;5.03;;
69161;SDS011;56269;51.738;21.652;2024-02-26T05:46:38;10.17;;;3.93;;
69161;SDS011;56269;51.738;21.652;2024-02-26T05:49:04;11.13;;;4.65;;
69161;SDS011;56269;51.738;21.652;2024-02-26T05:51:30;10.65;;;4.65;;
69161;SDS011;56269;51.738;21.652;2024-02-26T05:53:56;12.68;;;5.45;;
69161;SDS011;56269;51.738;21.652;2024-02-26T05:56:23;10.07;;;4.30;;
69161;SDS011;56269;51.738;21.652;2024-02-26T05:58:50;13.05;;;5.07;;
69161;SDS011;56269;51.738;21.652;2024-02-26T06:01:16;11.23;;;4.88;;
69161;SDS011;56269;51.738;21.652;2024-02-26T06:03:43;11.68;;;4.75;;
69161;SDS011;56269;51.738;21.652;2024-02-26T06:06:10;10.25;;;3.97;;
69161;SDS011;56269;51.738;21.652;2024-02-26T06:08:37;12.63;;;5.03;;
69161;SDS011;56269;51.738;21.652;2024-02-26T06:11:06;11.77;;;5.55;;
69161;SDS011;56269;51.738;21.652;2024-02-26T06:13:35;12.30;;;4.53;;
69161;SDS011;56269;51.738;21.652;2024-02-26T06:16:02;10.98;;;5.63;;
69161;SDS011;56269;51.738;21.652;2024-02-26T06:18:28;14.35;;;5.43;;
69161;SDS011;56269;51.738;21.652;2024-02-26T06:20:55;11.13;;;4.70;;
69161;SDS011;56269;51.738;21.652;2024-02-26T06:23:21;12.38;;;5.15;;
69161;SDS011;56269;51.738;21.652;2024-02-26T06:25:47;13.50;;;5.30;;
69161;SDS011;56269;51.738;21.652;2024-02-26T06:28:13;14.88;;;5.70;;
69161;SDS011;56269;51.738;21.652;2024-02-26T06:30:40;15.43;;;5.57;;
69161;SDS011;56269;51.738;21.652;2024-02-26T06:33:06;12.37;;;5.20;;
69161;SDS011;56269;51.738;21.652;2024-02-26T06:35:32;14.57;;;5.45;;
69161;SDS011;56269;51.738;21.652;2024-02-26T06:37:58;15.18;;;5.88;;
69161;SDS011;56269;51.738;21.652;2024-02-26T06:40:24;13.32;;;5.35;;
69161;SDS011;56269;51.738;21.652;2024-02-26T06:42:51;14.52;;;5.50;;
69161;SDS011;56269;51.738;21.652;2024-02-26T06:45:17;13.77;;;5.90;;
69161;SDS011;56269;51.738;21.652;2024-02-26T06:47:45;14.68;;;6.22;;
69161;SDS011;56269;51.738;21.652;2024-02-26T06:50:11;14.07;;;6.20;;
69161;SDS011;56269;51.738;21.652;2024-02-26T06:52:39;14.20;;;5.65;;
69161;SDS011;56269;51.738;21.652;2024-02-26T06:55:06;15.35;;;6.28;;
69161;SDS011;56269;51.738;21.652;2024-02-26T06:57:33;14.27;;;5.63;;
69161;SDS011;56269;51.738;21.652;2024-02-26T07:00:00;12.80;;;6.13;;
69161;SDS011;56269;51.738;21.652;2024-02-26T07:02:26;17.67;;;6.70;;
69161;SDS011;56269;51.738;21.652;2024-02-26T07:04:52;16.55;;;6.85;;
69161;SDS011;56269;51.738;21.652;2024-02-26T07:07:18;18.08;;;6.35;;
69161;SDS011;56269;51.738;21.652;2024-02-26T07:09:44;14.63;;;5.80;;
69161;SDS011;56269;51.738;21.652;2024-02-26T07:12:11;18.90;;;7.25;;
69161;SDS011;56269;51.738;21.652;2024-02-26T07:14:37;16.38;;;6.95;;
69161;SDS011;56269;51.738;21.652;2024-02-26T07:17:03;12.32;;;5.55;;
69161;SDS011;56269;51.738;21.652;2024-02-26T07:19:29;11.68;;;4.88;;
69161;SDS011;56269;51.738;21.652;2024-02-26T07:21:55;15.27;;;5.60;;
69161;SDS011;56269;51.738;21.652;2024-02-26T07:24:22;11.98;;;5.35;;
69161;SDS011;56269;51.738;21.652;2024-02-26T07:26:48;12.95;;;5.05;;
69161;SDS011;56269;51.738;21.652;2024-02-26T07:29:14;9.98;;;4.80;;
69161;SDS011;56269;51.738;21.652;2024-02-26T07:31:40;11.40;;;5.27;;
69161;SDS011;56269;51.738;21.652;2024-02-26T07:34:06;13.40;;;4.83;;
69161;SDS011;56269;51.738;21.652;2024-02-26T07:36:32;13.13;;;5.53;;
69161;SDS011;56269;51.738;21.652;2024-02-26T07:38:59;12.70;;;5.63;;
69161;SDS011;56269;51.738;21.652;2024-02-26T07:41:26;11.25;;;4.60;;
69161;SDS011;56269;51.738;21.652;2024-02-26T07:43:53;13.63;;;5.43;;
69161;SDS011;56269;51.738;21.652;2024-02-26T07:46:18;12.40;;;4.45;;
69161;SDS011;56269;51.738;21.652;2024-02-26T07:48:45;11.23;;;4.70;;
69161;SDS011;56269;51.738;21.652;2024-02-26T07:51:14;10.75;;;5.03;;
69161;SDS011;56269;51.738;21.652;2024-02-26T07:53:40;14.18;;;5.35;;
69161;SDS011;56269;51.738;21.652;2024-02-26T07:56:06;12.93;;;5.33;;
69161;SDS011;56269;51.738;21.652;2024-02-26T07:58:33;11.27;;;5.10;;
69161;SDS011;56269;51.738;21.652;2024-02-26T08:00:59;10.85;;;4.50;;
69161;SDS011;56269;51.738;21.652;2024-02-26T08:03:26;8.48;;;3.95;;
69161;SDS011;56269;51.738;21.652;2024-02-26T08:05:52;9.60;;;3.97;;
69161;SDS011;56269;51.738;21.652;2024-02-26T08:08:20;11.63;;;4.50;;
69161;SDS011;56269;51.738;21.652;2024-02-26T08:10:46;10.00;;;4.35;;
69161;SDS011;56269;51.738;21.652;2024-02-26T08:13:12;10.10;;;3.95;;
69161;SDS011;56269;51.738;21.652;2024-02-26T08:15:38;9.90;;;4.22;;
69161;SDS011;56269;51.738;21.652;2024-02-26T08:18:05;9.53;;;3.70;;
69161;SDS011;56269;51.738;21.652;2024-02-26T08:20:31;11.18;;;4.93;;
69161;SDS011;56269;51.738;21.652;2024-02-26T08:22:58;11.30;;;4.78;;
69161;SDS011;56269;51.738;21.652;2024-02-26T08:25:24;9.57;;;4.60;;
69161;SDS011;56269;51.738;21.652;2024-02-26T08:27:50;11.43;;;5.07;;
69161;SDS011;56269;51.738;21.652;2024-02-26T08:30:17;11.63;;;5.03;;
69161;SDS011;56269;51.738;21.652;2024-02-26T08:32:44;9.02;;;3.70;;
69161;SDS011;56269;51.738;21.652;2024-02-26T08:35:10;10.45;;;3.83;;
69161;SDS011;56269;51.738;21.652;2024-02-26T08:37:37;10.90;;;3.90;;
69161;SDS011;56269;51.738;21.652;2024-02-26T08:40:03;9.68;;;3.30;;
69161;SDS011;56269;51.738;21.652;2024-02-26T08:42:29;9.20;;;3.83;;
69161;SDS011;56269;51.738;21.652;2024-02-26T08:44:55;6.15;;;2.35;;
69161;SDS011;56269;51.738;21.652;2024-02-26T08:47:22;7.88;;;3.15;;
69161;SDS011;56269;51.738;21.652;2024-02-26T08:49:48;8.50;;;3.13;;
69161;SDS011;56269;51.738;21.652;2024-02-26T08:52:14;7.53;;;2.78;;
69161;SDS011;56269;51.738;21.652;2024-02-26T08:54:41;8.60;;;3.40;;
69161;SDS011;56269;51.738;21.652;2024-02-26T08:57:07;6.40;;;2.60;;
69161;SDS011;56269;51.738;21.652;2024-02-26T08:59:33;5.28;;;2.22;;
69161;SDS011;56269;51.738;21.652;2024-02-26T09:01:59;7.05;;;2.63;;
69161;SDS011;56269;51.738;21.652;2024-02-26T09:04:25;5.50;;;1.95;;
69161;SDS011;56269;51.738;21.652;2024-02-26T09:06:53;5.10;;;2.03;;
69161;SDS011;56269;51.738;21.652;2024-02-26T09:09:19;5.93;;;2.17;;
69161;SDS011;56269;51.738;21.652;2024-02-26T09:11:48;5.25;;;2.00;;
69161;SDS011;56269;51.738;21.652;2024-02-26T09:14:18;7.60;;;2.80;;
69161;SDS011;56269;51.738;21.652;2024-02-26T09:16:44;7.63;;;2.55;;
69161;SDS011;56269;51.738;21.652;2024-02-26T09:19:10;6.97;;;2.40;;
69161;SDS011;56269;51.738;21.652;2024-02-26T09:21:36;6.25;;;2.75;;
69161;SDS011;56269;51.738;21.652;2024-02-26T09:24:08;5.32;;;2.30;;
69161;SDS011;56269;51.738;21.652;2024-02-26T09:26:34;5.18;;;2.00;;
69161;SDS011;56269;51.738;21.652;2024-02-26T09:29:00;6.63;;;2.50;;
69161;SDS011;56269;51.738;21.652;2024-02-26T09:31:26;6.90;;;2.50;;
69161;SDS011;56269;51.738;21.652;2024-02-26T09:33:52;6.65;;;2.70;;
69161;SDS011;56269;51.738;21.652;2024-02-26T09:36:19;6.07;;;2.38;;
69161;SDS011;56269;51.738;21.652;2024-02-26T09:38:45;6.22;;;2.45;;
69161;SDS011;56269;51.738;21.652;2024-02-26T09:41:14;6.37;;;2.50;;
69161;SDS011;56269;51.738;21.652;2024-02-26T09:43:43;5.15;;;2.10;;
69161;SDS011;56269;51.738;21.652;2024-02-26T09:46:12;4.63;;;1.90;;
69161;SDS011;56269;51.738;21.652;2024-02-26T09:48:39;6.53;;;2.50;;
69161;SDS011;56269;51.738;21.652;2024-02-26T09:51:08;5.47;;;2.03;;
69161;SDS011;56269;51.738;21.652;2024-02-26T09:53:37;5.30;;;1.73;;
69161;SDS011;56269;51.738;21.652;2024-02-26T09:56:08;5.93;;;2.30;;
69161;SDS011;56269;51.738;21.652;2024-02-26T09:58:36;4.95;;;1.85;;
69161;SDS011;56269;51.738;21.652;2024-02-26T10:01:04;5.15;;;1.77;;
69161;SDS011;56269;51.738;21.652;2024-02-26T10:03:39;5.50;;;2.10;;
69161;SDS011;56269;51.738;21.652;2024-02-26T10:06:11;6.00;;;2.30;;
69161;SDS011;56269;51.738;21.652;2024-02-26T10:08:37;6.63;;;2.00;;
69161;SDS011;56269;51.738;21.652;2024-02-26T10:11:04;5.65;;;2.10;;
69161;SDS011;56269;51.738;21.652;2024-02-26T10:13:32;5.93;;;2.25;;
69161;SDS011;56269;51.738;21.652;2024-02-26T10:15:58;4.97;;;1.88;;
69161;SDS011;56269;51.738;21.652;2024-02-26T10:18:24;5.20;;;2.00;;
69161;SDS011;56269;51.738;21.652;2024-02-26T10:21:03;5.60;;;2.20;;
69161;SDS011;56269;51.738;21.652;2024-02-26T10:23:29;5.80;;;2.00;;
69161;SDS011;56269;51.738;21.652;2024-02-26T10:25:56;5.57;;;2.00;;
69161;SDS011;56269;51.738;21.652;2024-02-26T10:28:22;7.20;;;2.47;;
69161;SDS011;56269;51.738;21.652;2024-02-26T10:30:50;4.83;;;2.00;;
69161;SDS011;56269;51.738;21.652;2024-02-26T10:33:17;4.78;;;2.10;;
69161;SDS011;56269;51.738;21.652;2024-02-26T10:35:47;6.28;;;2.30;;
69161;SDS011;56269;51.738;21.652;2024-02-26T10:38:13;6.10;;;2.10;;
69161;SDS011;56269;51.738;21.652;2024-02-26T10:40:43;6.10;;;2.38;;
69161;SDS011;56269;51.738;21.652;2024-02-26T10:43:09;5.07;;;1.80;;
69161;SDS011;56269;51.738;21.652;2024-02-26T10:45:35;5.22;;;2.20;;
69161;SDS011;56269;51.738;21.652;2024-02-26T10:48:02;6.70;;;2.58;;
69161;SDS011;56269;51.738;21.652;2024-02-26T10:50:29;4.97;;;1.90;;
69161;SDS011;56269;51.738;21.652;2024-02-26T10:52:55;6.53;;;2.57;;
69161;SDS011;56269;51.738;21.652;2024-02-26T10:55:22;4.30;;;1.90;;
69161;SDS011;56269;51.738;21.652;2024-02-26T10:57:50;4.15;;;1.60;;
69161;SDS011;56269;51.738;21.652;2024-02-26T11:00:18;4.60;;;1.75;;
69161;SDS011;56269;51.738;21.652;2024-02-26T11:02:45;5.00;;;1.80;;
69161;SDS011;56269;51.738;21.652;2024-02-26T11:05:15;5.33;;;2.03;;
69161;SDS011;56269;51.738;21.652;2024-02-26T11:07:42;6.40;;;1.98;;
69161;SDS011;56269;51.738;21.652;2024-02-26T11:10:10;5.00;;;2.10;;
69161;SDS011;56269;51.738;21.652;2024-02-26T11:12:37;4.70;;;1.85;;
69161;SDS011;56269;51.738;21.652;2024-02-26T11:15:05;5.53;;;2.08;;
69161;SDS011;56269;51.738;21.652;2024-02-26T11:17:32;4.20;;;1.50;;
69161;SDS011;56269;51.738;21.652;2024-02-26T11:20:00;4.40;;;1.70;;
69161;SDS011;56269;51.738;21.652;2024-02-26T11:22:28;5.70;;;2.28;;
69161;SDS011;56269;51.738;21.652;2024-02-26T11:24:56;5.50;;;1.90;;
69161;SDS011;56269;51.738;21.652;2024-02-26T11:27:26;6.18;;;2.28;;
69161;SDS011;56269;51.738;21.652;2024-02-26T11:29:59;5.50;;;2.00;;
69161;SDS011;56269;51.738;21.652;2024-02-26T11:32:28;5.35;;;1.92;;
69161;SDS011;56269;51.738;21.652;2024-02-26T11:34:56;6.30;;;2.28;;
69161;SDS011;56269;51.738;21.652;2024-02-26T11:37:25;5.75;;;2.00;;
69161;SDS011;56269;51.738;21.652;2024-02-26T11:39:52;5.13;;;1.85;;
69161;SDS011;56269;51.738;21.652;2024-02-26T11:42:22;4.93;;;1.80;;
69161;SDS011;56269;51.738;21.652;2024-02-26T11:44:50;5.35;;;2.03;;
69161;SDS011;56269;51.738;21.652;2024-02-26T11:47:20;4.97;;;1.92;;
69161;SDS011;56269;51.738;21.652;2024-02-26T11:49:48;5.50;;;1.92;;
69161;SDS011;56269;51.738;21.652;2024-02-26T11:52:15;5.57;;;1.90;;
69161;SDS011;56269;51.738;21.652;2024-02-26T11:54:45;4.70;;;1.70;;
69161;SDS011;56269;51.738;21.652;2024-02-26T11:57:25;3.80;;;1.45;;
69161;SDS011;56269;51.738;21.652;2024-02-26T12:00:10;5.15;;;1.80;;
69161;SDS011;56269;51.738;21.652;2024-02-26T12:05:15;6.18;;;1.77;;
69161;SDS011;56269;51.738;21.652;2024-02-26T12:07:47;4.77;;;1.87;;
69161;SDS011;56269;51.738;21.652;2024-02-26T12:12:56;5.20;;;1.98;;
69161;SDS011;56269;51.738;21.652;2024-02-26T12:15:32;4.30;;;1.60;;
69161;SDS011;56269;51.738;21.652;2024-02-26T12:18:04;6.13;;;1.85;;
69161;SDS011;56269;51.738;21.652;2024-02-26T12:20:31;5.73;;;2.27;;
69161;SDS011;56269;51.738;21.652;2024-02-26T12:22:58;6.25;;;2.35;;
69161;SDS011;56269;51.738;21.652;2024-02-26T12:25:29;6.38;;;2.40;;
69161;SDS011;56269;51.738;21.652;2024-02-26T12:27:56;5.50;;;2.10;;
69161;SDS011;56269;51.738;21.652;2024-02-26T12:30:23;4.50;;;1.83;;
69161;SDS011;56269;51.738;21.652;2024-02-26T12:32:51;4.20;;;1.53;;
69161;SDS011;56269;51.738;21.652;2024-02-26T12:35:23;7.13;;;2.50;;
69161;SDS011;56269;51.738;21.652;2024-02-26T12:37:50;4.65;;;1.85;;
69161;SDS011;56269;51.738;21.652;2024-02-26T12:40:17;6.53;;;2.13;;
69161;SDS011;56269;51.738;21.652;2024-02-26T12:42:43;6.43;;;2.30;;
69161;SDS011;56269;51.738;21.652;2024-02-26T12:45:11;6.27;;;2.17;;
69161;SDS011;56269;51.738;21.652;2024-02-26T12:47:41;6.75;;;2.30;;
69161;SDS011;56269;51.738;21.652;2024-02-26T12:50:09;7.38;;;2.50;;
69161;SDS011;56269;51.738;21.652;2024-02-26T12:57:38;8.00;;;2.60;;
69161;SDS011;56269;51.738;21.652;2024-02-26T13:00:10;7.88;;;2.95;;
69161;SDS011;56269;51.738;21.652;2024-02-26T13:02:40;6.65;;;2.60;;
69161;SDS011;56269;51.738;21.652;2024-02-26T13:05:08;7.22;;;2.85;;
69161;SDS011;56269;51.738;21.652;2024-02-26T13:07:40;7.38;;;2.97;;
69161;SDS011;56269;51.738;21.652;2024-02-26T13:10:07;10.90;;;4.30;;
69161;SDS011;56269;51.738;21.652;2024-02-26T13:12:34;9.68;;;3.40;;
69161;SDS011;56269;51.738;21.652;2024-02-26T13:15:00;11.00;;;4.38;;
69161;SDS011;56269;51.738;21.652;2024-02-26T13:17:27;9.98;;;4.13;;
69161;SDS011;56269;51.738;21.652;2024-02-26T13:19:58;11.38;;;4.45;;
69161;SDS011;56269;51.738;21.652;2024-02-26T13:22:24;8.97;;;4.13;;
69161;SDS011;56269;51.738;21.652;2024-02-26T13:24:54;8.15;;;3.83;;
69161;SDS011;56269;51.738;21.652;2024-02-26T13:27:23;10.43;;;4.70;;
69161;SDS011;56269;51.738;21.652;2024-02-26T13:30:04;10.27;;;4.18;;
69161;SDS011;56269;51.738;21.652;2024-02-26T13:32:40;12.15;;;4.30;;
69161;SDS011;56269;51.738;21.652;2024-02-26T13:35:10;9.57;;;4.43;;
69161;SDS011;56269;51.738;21.652;2024-02-26T13:37:38;10.57;;;5.25;;
69161;SDS011;56269;51.738;21.652;2024-02-26T13:40:09;11.40;;;5.38;;
69161;SDS011;56269;51.738;21.652;2024-02-26T13:42:36;13.10;;;4.93;;
69161;SDS011;56269;51.738;21.652;2024-02-26T13:45:03;12.63;;;5.40;;
69161;SDS011;56269;51.738;21.652;2024-02-26T13:47:34;10.83;;;4.57;;
69161;SDS011;56269;51.738;21.652;2024-02-26T13:50:01;11.25;;;4.57;;
69161;SDS011;56269;51.738;21.652;2024-02-26T13:52:28;13.05;;;5.50;;
69161;SDS011;56269;51.738;21.652;2024-02-26T13:54:54;11.45;;;4.53;;
69161;SDS011;56269;51.738;21.652;2024-02-26T13:57:20;10.80;;;4.70;;
69161;SDS011;56269;51.738;21.652;2024-02-26T13:59:47;11.83;;;5.40;;
69161;SDS011;56269;51.738;21.652;2024-02-26T14:02:13;14.35;;;5.00;;
69161;SDS011;56269;51.738;21.652;2024-02-26T14:04:40;10.80;;;4.80;;
69161;SDS011;56269;51.738;21.652;2024-02-26T14:07:07;15.00;;;5.88;;
69161;SDS011;56269;51.738;21.652;2024-02-26T14:09:34;13.73;;;5.97;;
69161;SDS011;56269;51.738;21.652;2024-02-26T14:12:00;11.17;;;4.77;;
69161;SDS011;56269;51.738;21.652;2024-02-26T14:14:27;11.93;;;5.55;;
69161;SDS011;56269;51.738;21.652;2024-02-26T14:16:54;12.85;;;4.93;;
69161;SDS011;56269;51.738;21.652;2024-02-26T14:19:20;13.60;;;5.28;;
69161;SDS011;56269;51.738;21.652;2024-02-26T14:21:46;12.47;;;5.80;;
69161;SDS011;56269;51.738;21.652;2024-02-26T14:24:13;12.38;;;4.63;;
69161;SDS011;56269;51.738;21.652;2024-02-26T14:26:39;10.93;;;5.05;;
69161;SDS011;56269;51.738;21.652;2024-02-26T14:29:06;12.23;;;5.50;;
69161;SDS011;56269;51.738;21.652;2024-02-26T14:31:32;11.93;;;4.95;;
69161;SDS011;56269;51.738;21.652;2024-02-26T14:33:59;10.03;;;5.30;;
69161;SDS011;56269;51.738;21.652;2024-02-26T14:36:25;9.60;;;4.75;;